sensor_id;sensor_type;location;lat;lon;timestamp;pressure;altitude;pressure_sealevel;temperature;humidity
48077;BME280;33854;57.708;12.008;2022-12-18T00:00:54;102182.66;;;1.49;100.00
48077;BME280;33854;57.708;12.008;2022-12-18T00:03:19;102209.25;;;1.50;100.00
48077;BME280;33854;57.708;12.008;2022-12-18T00:05:51;102246.97;;;1.48;100.00
48077;BME280;33854;57.708;12.008;2022-12-18T00:08:17;102279.44;;;1.41;100.00
48077;BME280;33854;57.708;12.008;2022-12-18T00:10:43;102310.25;;;1.38;100.00
48077;BME280;33854;57.708;12.008;2022-12-18T00:13:09;102353.13;;;1.38;100.00
48077;BME280;33854;57.708;12.008;2022-12-18T00:15:34;102403.72;;;1.39;100.00
48077;BME280;33854;57.708;12.008;2022-12-18T00:18:00;102447.31;;;1.31;100.00
48077;BME280;33854;57.708;12.008;2022-12-18T00:20:25;102484.97;;;1.28;100.00
48077;BME280;33854;57.708;12.008;2022-12-18T00:22:51;102514.03;;;1.24;100.00
48077;BME280;33854;57.708;12.008;2022-12-18T00:25:16;102549.13;;;1.22;100.00
48077;BME280;33854;57.708;12.008;2022-12-18T00:27:42;102576.53;;;1.20;100.00
48077;BME280;33854;57.708;12.008;2022-12-18T00:30:07;102608.22;;;1.19;100.00
48077;BME280;33854;57.708;12.008;2022-12-18T00:32:33;102631.34;;;1.17;100.00
48077;BME280;33854;57.708;12.008;2022-12-18T00:34:58;102650.09;;;1.11;100.00
48077;BME280;33854;57.708;12.008;2022-12-18T00:37:23;102679.84;;;1.03;100.00
48077;BME280;33854;57.708;12.008;2022-12-18T00:39:48;102702.81;;;0.96;100.00
48077;BME280;33854;57.708;12.008;2022-12-18T00:42:14;102702.59;;;0.87;100.00
48077;BME280;33854;57.708;12.008;2022-12-18T00:44:58;102719.44;;;0.74;100.00
48077;BME280;33854;57.708;12.008;2022-12-18T00:47:23;102729.41;;;0.64;100.00
48077;BME280;33854;57.708;12.008;2022-12-18T00:49:49;102775.44;;;0.54;100.00
48077;BME280;33854;57.708;12.008;2022-12-18T00:52:14;102820.91;;;0.57;100.00
48077;BME280;33854;57.708;12.008;2022-12-18T00:54:39;102834.53;;;0.54;100.00
48077;BME280;33854;57.708;12.008;2022-12-18T00:57:05;102864.56;;;0.57;100.00
48077;BME280;33854;57.708;12.008;2022-12-18T00:59:30;102884.28;;;0.58;100.00
48077;BME280;33854;57.708;12.008;2022-12-18T01:01:55;102922.19;;;0.65;100.00
48077;BME280;33854;57.708;12.008;2022-12-18T01:04:20;102947.97;;;0.68;100.00
48077;BME280;33854;57.708;12.008;2022-12-18T01:06:46;102969.50;;;0.72;100.00
48077;BME280;33854;57.708;12.008;2022-12-18T01:09:11;102992.66;;;0.73;100.00
48077;BME280;33854;57.708;12.008;2022-12-18T01:11:37;102995.25;;;0.75;100.00
48077;BME280;33854;57.708;12.008;2022-12-18T01:14:02;103023.50;;;0.73;100.00
48077;BME280;33854;57.708;12.008;2022-12-18T01:16:27;103041.47;;;0.72;100.00
48077;BME280;33854;57.708;12.008;2022-12-18T01:18:53;103066.22;;;0.70;100.00
48077;BME280;33854;57.708;12.008;2022-12-18T01:21:19;103093.63;;;0.69;100.00
48077;BME280;33854;57.708;12.008;2022-12-18T01:23:45;103107.34;;;0.70;100.00
48077;BME280;33854;57.708;12.008;2022-12-18T01:26:12;103120.16;;;0.68;100.00
48077;BME280;33854;57.708;12.008;2022-12-18T01:28:38;103131.41;;;0.72;100.00
48077;BME280;33854;57.708;12.008;2022-12-18T01:31:13;103133.78;;;0.66;100.00
48077;BME280;33854;57.708;12.008;2022-12-18T01:33:39;103122.47;;;0.61;100.00
48077;BME280;33854;57.708;12.008;2022-12-18T01:36:05;103132.59;;;0.56;100.00
48077;BME280;33854;57.708;12.008;2022-12-18T01:38:30;103134.25;;;0.54;100.00
48077;BME280;33854;57.708;12.008;2022-12-18T01:40:59;103137.53;;;0.50;100.00
48077;BME280;33854;57.708;12.008;2022-12-18T01:46:09;103122.09;;;0.48;100.00
48077;BME280;33854;57.708;12.008;2022-12-18T01:48:34;103117.84;;;0.50;100.00
48077;BME280;33854;57.708;12.008;2022-12-18T01:50:59;103114.63;;;0.56;100.00
48077;BME280;33854;57.708;12.008;2022-12-18T01:53:25;103098.28;;;0.54;100.00
48077;BME280;33854;57.708;12.008;2022-12-18T01:55:54;103096.53;;;0.53;100.00
48077;BME280;33854;57.708;12.008;2022-12-18T01:58:21;103068.25;;;0.53;100.00
48077;BME280;33854;57.708;12.008;2022-12-18T02:00:48;103064.78;;;0.51;100.00
48077;BME280;33854;57.708;12.008;2022-12-18T02:03:13;103052.75;;;0.50;100.00
48077;BME280;33854;57.708;12.008;2022-12-18T02:08:20;103020.03;;;0.44;100.00
48077;BME280;33854;57.708;12.008;2022-12-18T02:18:51;102924.56;;;0.59;100.00
48077;BME280;33854;57.708;12.008;2022-12-18T02:23:52;102876.19;;;0.74;100.00
48077;BME280;33854;57.708;12.008;2022-12-18T02:26:33;102835.31;;;0.83;100.00
48077;BME280;33854;57.708;12.008;2022-12-18T02:29:02;102798.56;;;0.87;100.00
48077;BME280;33854;57.708;12.008;2022-12-18T02:31:30;102752.53;;;0.96;100.00
48077;BME280;33854;57.708;12.008;2022-12-18T02:33:58;102622.63;;;1.10;100.00
48077;BME280;33854;57.708;12.008;2022-12-18T02:36:25;102515.56;;;1.15;100.00
48077;BME280;33854;57.708;12.008;2022-12-18T02:38:52;102450.53;;;1.20;100.00
48077;BME280;33854;57.708;12.008;2022-12-18T02:41:19;102366.59;;;1.25;100.00
48077;BME280;33854;57.708;12.008;2022-12-18T02:43:49;102321.31;;;1.33;100.00
48077;BME280;33854;57.708;12.008;2022-12-18T02:48:52;102289.72;;;1.40;100.00
48077;BME280;33854;57.708;12.008;2022-12-18T02:51:31;102248.56;;;1.40;100.00
48077;BME280;33854;57.708;12.008;2022-12-18T02:54:10;102225.50;;;1.46;100.00
48077;BME280;33854;57.708;12.008;2022-12-18T02:56:39;102217.78;;;1.46;100.00
48077;BME280;33854;57.708;12.008;2022-12-18T02:59:19;102179.25;;;1.50;100.00
48077;BME280;33854;57.708;12.008;2022-12-18T03:04:36;102105.59;;;1.58;100.00
48077;BME280;33854;57.708;12.008;2022-12-18T03:07:05;102040.44;;;1.61;100.00
48077;BME280;33854;57.708;12.008;2022-12-18T03:09:35;102000.16;;;1.64;100.00
48077;BME280;33854;57.708;12.008;2022-12-18T03:12:06;101934.97;;;1.64;100.00
48077;BME280;33854;57.708;12.008;2022-12-18T03:15:08;101809.78;;;1.67;100.00
48077;BME280;33854;57.708;12.008;2022-12-18T03:17:35;101691.41;;;1.67;100.00
48077;BME280;33854;57.708;12.008;2022-12-18T03:20:10;101597.91;;;1.70;100.00
48077;BME280;33854;57.708;12.008;2022-12-18T03:22:37;101533.63;;;1.71;100.00
48077;BME280;33854;57.708;12.008;2022-12-18T03:25:04;101502.72;;;1.73;100.00
48077;BME280;33854;57.708;12.008;2022-12-18T03:27:31;101467.56;;;1.73;100.00
48077;BME280;33854;57.708;12.008;2022-12-18T03:30:05;101433.25;;;1.73;100.00
48077;BME280;33854;57.708;12.008;2022-12-18T03:32:33;101420.38;;;1.73;100.00
48077;BME280;33854;57.708;12.008;2022-12-18T03:35:03;101400.66;;;1.77;100.00
48077;BME280;33854;57.708;12.008;2022-12-18T03:37:30;101385.25;;;1.75;100.00
48077;BME280;33854;57.708;12.008;2022-12-18T03:39:55;101357.75;;;1.76;100.00
48077;BME280;33854;57.708;12.008;2022-12-18T03:42:28;101360.34;;;1.76;100.00
48077;BME280;33854;57.708;12.008;2022-12-18T03:49:59;101359.50;;;1.73;100.00
48077;BME280;33854;57.708;12.008;2022-12-18T03:52:42;101367.22;;;1.72;100.00
48077;BME280;33854;57.708;12.008;2022-12-18T03:55:11;101388.66;;;1.74;100.00
48077;BME280;33854;57.708;12.008;2022-12-18T03:57:37;101376.66;;;1.75;100.00
48077;BME280;33854;57.708;12.008;2022-12-18T04:00:05;101394.66;;;1.73;100.00
48077;BME280;33854;57.708;12.008;2022-12-18T04:02:31;101397.25;;;1.75;100.00
48077;BME280;33854;57.708;12.008;2022-12-18T04:04:58;101405.81;;;1.75;100.00
48077;BME280;33854;57.708;12.008;2022-12-18T04:07:24;101405.81;;;1.75;100.00
48077;BME280;33854;57.708;12.008;2022-12-18T04:09:49;101423.81;;;1.73;100.00
48077;BME280;33854;57.708;12.008;2022-12-18T04:12:17;101430.69;;;1.75;100.00
48077;BME280;33854;57.708;12.008;2022-12-18T04:14:42;101447.00;;;1.75;100.00
48077;BME280;33854;57.708;12.008;2022-12-18T04:17:08;101475.31;;;1.75;100.00
48077;BME280;33854;57.708;12.008;2022-12-18T04:19:33;101496.72;;;1.76;100.00
48077;BME280;33854;57.708;12.008;2022-12-18T04:21:58;101517.31;;;1.74;100.00
48077;BME280;33854;57.708;12.008;2022-12-18T04:24:24;101534.50;;;1.75;100.00
48077;BME280;33854;57.708;12.008;2022-12-18T04:26:49;101544.78;;;1.77;100.00
48077;BME280;33854;57.708;12.008;2022-12-18T04:29:14;101543.91;;;1.76;100.00
48077;BME280;33854;57.708;12.008;2022-12-18T04:31:40;101567.94;;;1.77;100.00
48077;BME280;33854;57.708;12.008;2022-12-18T04:34:05;101569.66;;;1.76;100.00
48077;BME280;33854;57.708;12.008;2022-12-18T04:36:30;101573.09;;;1.77;100.00
48077;BME280;33854;57.708;12.008;2022-12-18T04:38:55;101585.09;;;1.76;100.00
48077;BME280;33854;57.708;12.008;2022-12-18T04:41:21;101600.50;;;1.73;100.00
48077;BME280;33854;57.708;12.008;2022-12-18T04:43:46;101601.38;;;1.73;100.00
48077;BME280;33854;57.708;12.008;2022-12-18T04:46:11;101596.22;;;1.73;100.00
48077;BME280;33854;57.708;12.008;2022-12-18T04:48:37;101580.78;;;1.72;100.00
48077;BME280;33854;57.708;12.008;2022-12-18T04:51:03;101588.50;;;1.70;100.00
48077;BME280;33854;57.708;12.008;2022-12-18T04:53:28;101602.22;;;1.71;100.00
48077;BME280;33854;57.708;12.008;2022-12-18T04:56:03;101595.34;;;1.70;100.00
48077;BME280;33854;57.708;12.008;2022-12-18T04:58:29;101602.22;;;1.71;100.00
48077;BME280;33854;57.708;12.008;2022-12-18T05:00:54;101605.66;;;1.70;100.00
48077;BME280;33854;57.708;12.008;2022-12-18T05:03:20;101613.38;;;1.71;100.00
48077;BME280;33854;57.708;12.008;2022-12-18T05:05:48;101625.38;;;1.71;100.00
48077;BME280;33854;57.708;12.008;2022-12-18T05:08:14;101630.53;;;1.74;100.00
48077;BME280;33854;57.708;12.008;2022-12-18T05:10:39;101622.81;;;1.74;100.00
48077;BME280;33854;57.708;12.008;2022-12-18T05:13:04;101619.41;;;1.75;100.00
48077;BME280;33854;57.708;12.008;2022-12-18T05:15:30;101617.69;;;1.77;100.00
48077;BME280;33854;57.708;12.008;2022-12-18T05:17:59;101614.25;;;1.81;100.00
48077;BME280;33854;57.708;12.008;2022-12-18T05:20:25;101606.53;;;1.81;100.00
48077;BME280;33854;57.708;12.008;2022-12-18T05:22:51;101603.97;;;1.84;100.00
48077;BME280;33854;57.708;12.008;2022-12-18T05:25:17;101598.84;;;1.84;100.00
48077;BME280;33854;57.708;12.008;2022-12-18T05:27:42;101606.56;;;1.87;100.00
48077;BME280;33854;57.708;12.008;2022-12-18T05:30:08;101596.25;;;1.87;100.00
48077;BME280;33854;57.708;12.008;2022-12-18T05:32:34;101579.97;;;1.88;100.00
48077;BME280;33854;57.708;12.008;2022-12-18T05:34:59;101598.88;;;1.93;100.00
48077;BME280;33854;57.708;12.008;2022-12-18T05:37:24;101584.28;;;1.94;100.00
48077;BME280;33854;57.708;12.008;2022-12-18T05:39:50;101586.00;;;1.99;100.00
48077;BME280;33854;57.708;12.008;2022-12-18T05:42:15;101595.47;;;2.00;100.00
48077;BME280;33854;57.708;12.008;2022-12-18T05:44:40;101603.19;;;2.02;100.00
48077;BME280;33854;57.708;12.008;2022-12-18T05:47:06;101601.47;;;2.02;100.00
48077;BME280;33854;57.708;12.008;2022-12-18T05:49:31;101597.16;;;2.04;100.00
48077;BME280;33854;57.708;12.008;2022-12-18T05:51:56;101598.91;;;2.05;100.00
48077;BME280;33854;57.708;12.008;2022-12-18T05:54:22;101590.34;;;2.06;100.00
48077;BME280;33854;57.708;12.008;2022-12-18T05:56:47;101581.75;;;2.06;100.00
48077;BME280;33854;57.708;12.008;2022-12-18T05:59:12;101572.28;;;2.02;100.00
48077;BME280;33854;57.708;12.008;2022-12-18T06:01:38;101574.88;;;2.00;100.00
48077;BME280;33854;57.708;12.008;2022-12-18T06:04:03;101559.41;;;1.99;100.00
48077;BME280;33854;57.708;12.008;2022-12-18T06:06:28;101555.97;;;1.98;100.00
48077;BME280;33854;57.708;12.008;2022-12-18T06:08:55;101561.13;;;1.98;100.00
48077;BME280;33854;57.708;12.008;2022-12-18T06:11:21;101558.53;;;1.98;100.00
48077;BME280;33854;57.708;12.008;2022-12-18T06:13:49;101550.00;;;2.01;100.00
48077;BME280;33854;57.708;12.008;2022-12-18T06:16:14;101531.97;;;2.02;100.00
48077;BME280;33854;57.708;12.008;2022-12-18T06:18:39;101547.41;;;2.02;100.00
48077;BME280;33854;57.708;12.008;2022-12-18T06:21:05;101534.50;;;2.04;100.00
48077;BME280;33854;57.708;12.008;2022-12-18T06:23:30;101537.09;;;2.07;100.00
48077;BME280;33854;57.708;12.008;2022-12-18T06:25:55;101543.13;;;2.07;100.00
48077;BME280;33854;57.708;12.008;2022-12-18T06:28:21;101532.81;;;2.07;100.00
48077;BME280;33854;57.708;12.008;2022-12-18T06:30:47;101518.25;;;2.06;100.00
48077;BME280;33854;57.708;12.008;2022-12-18T06:33:13;101497.63;;;2.08;100.00
48077;BME280;33854;57.708;12.008;2022-12-18T06:35:39;101510.53;;;2.09;100.00
48077;BME280;33854;57.708;12.008;2022-12-18T06:38:04;101500.22;;;2.09;100.00
48077;BME280;33854;57.708;12.008;2022-12-18T06:40:30;101502.78;;;2.11;100.00
48077;BME280;33854;57.708;12.008;2022-12-18T06:42:55;101493.34;;;2.08;100.00
48077;BME280;33854;57.708;12.008;2022-12-18T06:45:20;101483.91;;;2.10;100.00
48077;BME280;33854;57.708;12.008;2022-12-18T06:47:46;101472.72;;;2.10;100.00
48077;BME280;33854;57.708;12.008;2022-12-18T06:50:11;101453.88;;;2.08;100.00
48077;BME280;33854;57.708;12.008;2022-12-18T06:52:37;101449.56;;;2.08;100.00
48077;BME280;33854;57.708;12.008;2022-12-18T06:55:04;101453.00;;;2.07;100.00
48077;BME280;33854;57.708;12.008;2022-12-18T06:57:29;101442.69;;;2.07;100.00
48077;BME280;33854;57.708;12.008;2022-12-18T06:59:54;101450.44;;;2.09;100.00
48077;BME280;33854;57.708;12.008;2022-12-18T07:02:20;101440.16;;;2.09;100.00
48077;BME280;33854;57.708;12.008;2022-12-18T07:04:45;101439.28;;;2.11;100.00
48077;BME280;33854;57.708;12.008;2022-12-18T07:07:10;101448.69;;;2.12;100.00
48077;BME280;33854;57.708;12.008;2022-12-18T07:09:35;101434.13;;;2.14;100.00
48077;BME280;33854;57.708;12.008;2022-12-18T07:12:01;101424.69;;;2.13;100.00
48077;BME280;33854;57.708;12.008;2022-12-18T07:14:26;101422.97;;;2.17;100.00
48077;BME280;33854;57.708;12.008;2022-12-18T07:16:51;101425.53;;;2.15;100.00
48077;BME280;33854;57.708;12.008;2022-12-18T07:19:17;101432.41;;;2.16;100.00
48077;BME280;33854;57.708;12.008;2022-12-18T07:21:42;101422.94;;;2.18;100.00
48077;BME280;33854;57.708;12.008;2022-12-18T07:24:07;101434.13;;;2.20;100.00
48077;BME280;33854;57.708;12.008;2022-12-18T07:26:32;101436.69;;;2.20;100.00
48077;BME280;33854;57.708;12.008;2022-12-18T07:28:58;101434.13;;;2.20;100.00
48077;BME280;33854;57.708;12.008;2022-12-18T07:31:24;101427.25;;;2.22;100.00
48077;BME280;33854;57.708;12.008;2022-12-18T07:33:49;101432.38;;;2.24;100.00
48077;BME280;33854;57.708;12.008;2022-12-18T07:36:15;101442.69;;;2.27;100.00
48077;BME280;33854;57.708;12.008;2022-12-18T07:38:41;101440.97;;;2.27;100.00
48077;BME280;33854;57.708;12.008;2022-12-18T07:41:07;101444.41;;;2.28;100.00
48077;BME280;33854;57.708;12.008;2022-12-18T07:43:34;101454.69;;;2.33;100.00
48077;BME280;33854;57.708;12.008;2022-12-18T07:45:59;101445.28;;;2.32;100.00
48077;BME280;33854;57.708;12.008;2022-12-18T07:48:24;101440.13;;;2.32;100.00
48077;BME280;33854;57.708;12.008;2022-12-18T07:50:49;101429.81;;;2.35;100.00
48077;BME280;33854;57.708;12.008;2022-12-18T07:53:15;101421.22;;;2.33;100.00
48077;BME280;33854;57.708;12.008;2022-12-18T07:55:41;101428.09;;;2.34;100.00
48077;BME280;33854;57.708;12.008;2022-12-18T07:58:06;101415.22;;;2.37;100.00
48077;BME280;33854;57.708;12.008;2022-12-18T08:00:32;101401.47;;;2.36;100.00
48077;BME280;33854;57.708;12.008;2022-12-18T08:02:57;101398.91;;;2.38;100.00
48077;BME280;33854;57.708;12.008;2022-12-18T08:05:22;101412.63;;;2.40;100.00
48077;BME280;33854;57.708;12.008;2022-12-18T08:07:48;101440.09;;;2.39;100.00
48077;BME280;33854;57.708;12.008;2022-12-18T08:10:13;101442.69;;;2.41;100.00
48077;BME280;33854;57.708;12.008;2022-12-18T08:12:38;101444.38;;;2.39;100.00
48077;BME280;33854;57.708;12.008;2022-12-18T08:15:04;101446.13;;;2.40;100.00
48077;BME280;33854;57.708;12.008;2022-12-18T08:17:29;101449.53;;;2.36;100.00
48077;BME280;33854;57.708;12.008;2022-12-18T08:19:55;101453.84;;;2.40;100.00
48077;BME280;33854;57.708;12.008;2022-12-18T08:22:20;101465.84;;;2.42;100.00
48077;BME280;33854;57.708;12.008;2022-12-18T08:24:45;101472.72;;;2.42;100.00
48077;BME280;33854;57.708;12.008;2022-12-18T08:27:10;101486.47;;;2.44;100.00
48077;BME280;33854;57.708;12.008;2022-12-18T08:29:36;101473.59;;;2.44;100.00
48077;BME280;33854;57.708;12.008;2022-12-18T08:32:01;101478.75;;;2.42;100.00
48077;BME280;33854;57.708;12.008;2022-12-18T08:34:26;101485.59;;;2.45;100.00
48077;BME280;33854;57.708;12.008;2022-12-18T08:36:52;101487.34;;;2.46;100.00
48077;BME280;33854;57.708;12.008;2022-12-18T08:39:17;101497.63;;;2.47;100.00
48077;BME280;33854;57.708;12.008;2022-12-18T08:41:43;101488.19;;;2.48;100.00
48077;BME280;33854;57.708;12.008;2022-12-18T08:44:28;101521.66;;;2.48;100.00
48077;BME280;33854;57.708;12.008;2022-12-18T08:47:02;101493.34;;;2.49;100.00
48077;BME280;33854;57.708;12.008;2022-12-18T08:49:28;101506.22;;;2.51;100.00
48077;BME280;33854;57.708;12.008;2022-12-18T08:51:54;101511.38;;;2.48;100.00
48077;BME280;33854;57.708;12.008;2022-12-18T08:54:20;101518.22;;;2.50;100.00
48077;BME280;33854;57.708;12.008;2022-12-18T08:56:45;101527.69;;;2.51;100.00
48077;BME280;33854;57.708;12.008;2022-12-18T08:59:10;101525.09;;;2.50;100.00
48077;BME280;33854;57.708;12.008;2022-12-18T09:01:36;101534.56;;;2.51;100.00
48077;BME280;33854;57.708;12.008;2022-12-18T09:04:01;101533.72;;;2.52;100.00
48077;BME280;33854;57.708;12.008;2022-12-18T09:06:26;101539.72;;;2.54;100.00
48077;BME280;33854;57.708;12.008;2022-12-18T09:08:52;101543.13;;;2.53;100.00
48077;BME280;33854;57.708;12.008;2022-12-18T09:13:45;101544.88;;;2.55;100.00
48077;BME280;33854;57.708;12.008;2022-12-18T09:16:10;101551.75;;;2.55;100.00
48077;BME280;33854;57.708;12.008;2022-12-18T09:18:36;101558.59;;;2.54;100.00
48077;BME280;33854;57.708;12.008;2022-12-18T09:21:07;101553.47;;;2.54;100.00
48077;BME280;33854;57.708;12.008;2022-12-18T09:23:32;101556.91;;;2.55;100.00
48077;BME280;33854;57.708;12.008;2022-12-18T09:26:00;101553.44;;;2.56;100.00
48077;BME280;33854;57.708;12.008;2022-12-18T09:28:26;101550.88;;;2.56;100.00
48077;BME280;33854;57.708;12.008;2022-12-18T09:30:52;101564.63;;;2.56;100.00
48077;BME280;33854;57.708;12.008;2022-12-18T09:33:17;101570.66;;;2.58;100.00
48077;BME280;33854;57.708;12.008;2022-12-18T09:35:43;101592.09;;;2.59;100.00
48077;BME280;33854;57.708;12.008;2022-12-18T09:38:12;101602.41;;;2.60;100.00
48077;BME280;33854;57.708;12.008;2022-12-18T09:40:57;101592.09;;;2.62;100.00
48077;BME280;33854;57.708;12.008;2022-12-18T09:43:26;101604.13;;;2.63;100.00
48077;BME280;33854;57.708;12.008;2022-12-18T09:45:55;101603.28;;;2.62;100.00
48077;BME280;33854;57.708;12.008;2022-12-18T09:48:23;101600.69;;;2.59;100.00
48077;BME280;33854;57.708;12.008;2022-12-18T09:50:50;101617.00;;;2.61;100.00
48077;BME280;33854;57.708;12.008;2022-12-18T09:53:20;101621.31;;;2.64;100.00
48077;BME280;33854;57.708;12.008;2022-12-18T09:55:47;101623.03;;;2.68;100.00
48077;BME280;33854;57.708;12.008;2022-12-18T10:00:44;101637.63;;;2.69;100.00
48077;BME280;33854;57.708;12.008;2022-12-18T10:03:11;101653.97;;;2.60;100.00
48077;BME280;33854;57.708;12.008;2022-12-18T10:05:39;101652.22;;;2.55;100.00
48077;BME280;33854;57.708;12.008;2022-12-18T10:10:51;101726.06;;;2.53;100.00
48077;BME280;33854;57.708;12.008;2022-12-18T10:15:54;101753.56;;;2.51;100.00
48077;BME280;33854;57.708;12.008;2022-12-18T10:20:56;101779.34;;;2.54;100.00
48077;BME280;33854;57.708;12.008;2022-12-18T10:23:33;101793.06;;;2.50;100.00
48077;BME280;33854;57.708;12.008;2022-12-18T10:26:06;101810.25;;;2.51;100.00
48077;BME280;33854;57.708;12.008;2022-12-18T10:28:32;101817.13;;;2.50;100.00
48077;BME280;33854;57.708;12.008;2022-12-18T10:30:57;101842.91;;;2.53;100.00
48077;BME280;33854;57.708;12.008;2022-12-18T10:33:24;101839.47;;;2.54;100.00
48077;BME280;33854;57.708;12.008;2022-12-18T10:35:53;101848.06;;;2.56;100.00
48077;BME280;33854;57.708;12.008;2022-12-18T10:40:54;101858.44;;;2.67;100.00
48077;BME280;33854;57.708;12.008;2022-12-18T10:43:24;101856.72;;;2.70;100.00
48077;BME280;33854;57.708;12.008;2022-12-18T10:46:00;101870.50;;;2.80;100.00
48077;BME280;33854;57.708;12.008;2022-12-18T10:48:25;101888.53;;;2.81;100.00
48077;BME280;33854;57.708;12.008;2022-12-18T10:50:51;101891.97;;;2.77;100.00
48077;BME280;33854;57.708;12.008;2022-12-18T10:53:24;101904.88;;;2.79;100.00
48077;BME280;33854;57.708;12.008;2022-12-18T10:55:50;101929.81;;;2.80;100.00
48077;BME280;33854;57.708;12.008;2022-12-18T11:01:05;101957.38;;;2.96;100.00
48077;BME280;33854;57.708;12.008;2022-12-18T11:06:04;101995.19;;;2.99;100.00
48077;BME280;33854;57.708;12.008;2022-12-18T11:08:29;102009.81;;;3.00;100.00
48077;BME280;33854;57.708;12.008;2022-12-18T11:10:54;102026.19;;;3.05;100.00
48077;BME280;33854;57.708;12.008;2022-12-18T11:13:21;102045.97;;;3.09;100.00
48077;BME280;33854;57.708;12.008;2022-12-18T11:15:47;102066.63;;;3.10;100.00
48077;BME280;33854;57.708;12.008;2022-12-18T11:18:16;102096.69;;;3.08;100.00
48077;BME280;33854;57.708;12.008;2022-12-18T11:20:43;102126.81;;;3.09;100.00
48077;BME280;33854;57.708;12.008;2022-12-18T11:23:15;102151.72;;;3.06;100.00
48077;BME280;33854;57.708;12.008;2022-12-18T11:25:40;102171.44;;;3.02;100.00
48077;BME280;33854;57.708;12.008;2022-12-18T11:28:25;102195.53;;;3.03;100.00
48077;BME280;33854;57.708;12.008;2022-12-18T11:31:34;102220.47;;;3.04;100.00
48077;BME280;33854;57.708;12.008;2022-12-18T11:33:52;102227.34;;;3.03;100.00
48077;BME280;33854;57.708;12.008;2022-12-18T11:36:19;102258.28;;;3.03;100.00
48077;BME280;33854;57.708;12.008;2022-12-18T11:38:46;102286.66;;;3.05;100.00
48077;BME280;33854;57.708;12.008;2022-12-18T11:41:27;102295.22;;;2.99;100.00
48077;BME280;33854;57.708;12.008;2022-12-18T11:44:40;102309.00;;;3.01;100.00
48077;BME280;33854;57.708;12.008;2022-12-18T11:47:16;102314.16;;;3.03;100.00
48077;BME280;33854;57.708;12.008;2022-12-18T11:49:47;102334.84;;;3.06;100.00
48077;BME280;33854;57.708;12.008;2022-12-18T11:52:18;102341.75;;;3.08;100.00
48077;BME280;33854;57.708;12.008;2022-12-18T11:54:46;102340.88;;;3.06;100.00
48077;BME280;33854;57.708;12.008;2022-12-18T12:00:12;102366.69;;;3.09;100.00
48077;BME280;33854;57.708;12.008;2022-12-18T12:10:17;102352.06;;;3.07;100.00
48077;BME280;33854;57.708;12.008;2022-12-18T12:17:45;102410.47;;;3.03;100.00
48077;BME280;33854;57.708;12.008;2022-12-18T12:38:06;102455.13;;;2.99;100.00
48077;BME280;33854;57.708;12.008;2022-12-18T12:40:35;102480.09;;;3.03;100.00
48077;BME280;33854;57.708;12.008;2022-12-18T12:43:38;102496.47;;;3.05;100.00
48077;BME280;33854;57.708;12.008;2022-12-18T12:45:55;102551.50;;;3.07;100.00
48077;BME280;33854;57.708;12.008;2022-12-18T12:48:43;102555.88;;;3.10;100.00
48077;BME280;33854;57.708;12.008;2022-12-18T12:51:11;102562.69;;;3.06;100.00
48077;BME280;33854;57.708;12.008;2022-12-18T12:53:38;102583.38;;;3.11;100.00
48077;BME280;33854;57.708;12.008;2022-12-18T12:56:04;102601.47;;;3.12;100.00
48077;BME280;33854;57.708;12.008;2022-12-18T12:58:38;102629.94;;;3.18;100.00
48077;BME280;33854;57.708;12.008;2022-12-18T13:09:00;102691.19;;;3.31;100.00
48077;BME280;33854;57.708;12.008;2022-12-18T13:11:34;102720.50;;;3.35;100.00
48077;BME280;33854;57.708;12.008;2022-12-18T13:14:23;102737.78;;;3.40;100.00
48077;BME280;33854;57.708;12.008;2022-12-18T13:16:49;102742.22;;;3.49;100.00
48077;BME280;33854;57.708;12.008;2022-12-18T13:19:23;102755.97;;;3.48;100.00
48077;BME280;33854;57.708;12.008;2022-12-18T13:21:54;102792.06;;;3.45;100.00
48077;BME280;33854;57.708;12.008;2022-12-18T13:24:25;102842.00;;;3.47;100.00
48077;BME280;33854;57.708;12.008;2022-12-18T13:26:51;102885.91;;;3.47;100.00
48077;BME280;33854;57.708;12.008;2022-12-18T13:32:00;102951.06;;;3.35;100.00
48077;BME280;33854;57.708;12.008;2022-12-18T13:34:26;102994.03;;;3.33;100.00
48077;BME280;33854;57.708;12.008;2022-12-18T13:36:52;102994.75;;;3.26;100.00
48077;BME280;33854;57.708;12.008;2022-12-18T13:41:47;103041.84;;;3.16;100.00
48077;BME280;33854;57.708;12.008;2022-12-18T13:46:58;103043.41;;;3.08;100.00
48077;BME280;33854;57.708;12.008;2022-12-18T13:49:36;103052.81;;;3.06;100.00
48077;BME280;33854;57.708;12.008;2022-12-18T13:52:03;103057.97;;;3.06;100.00
48077;BME280;33854;57.708;12.008;2022-12-18T13:54:40;103023.56;;;3.06;100.00
48077;BME280;33854;57.708;12.008;2022-12-18T13:57:25;103045.16;;;3.09;100.00
48077;BME280;33854;57.708;12.008;2022-12-18T13:59:50;103067.41;;;3.04;100.00
48077;BME280;33854;57.708;12.008;2022-12-18T14:02:49;103042.38;;;3.02;100.00
48077;BME280;33854;57.708;12.008;2022-12-18T14:05:20;103051.78;;;2.98;100.00
48077;BME280;33854;57.708;12.008;2022-12-18T14:07:46;103065.59;;;3.00;100.00
48077;BME280;33854;57.708;12.008;2022-12-18T14:10:11;103075.00;;;2.98;100.00
48077;BME280;33854;57.708;12.008;2022-12-18T14:12:39;103087.78;;;2.94;100.00
48077;BME280;33854;57.708;12.008;2022-12-18T14:17:54;103110.13;;;2.93;100.00
48077;BME280;33854;57.708;12.008;2022-12-18T14:20:20;103117.91;;;2.95;100.00
48077;BME280;33854;57.708;12.008;2022-12-18T14:22:46;103111.72;;;2.88;100.00